createdAt,value
2017-07-25T00:00:54.123Z,945.1
2017-07-25T00:01:54.120Z,945.07
2017-07-25T00:02:54.110Z,945.1
2017-07-25T00:03:54.102Z,945.1
2017-07-25T00:04:54.095Z,945.11
2017-07-25T00:05:54.089Z,945.09
2017-07-25T00:06:54.082Z,945.12
2017-07-25T00:07:54.075Z,945.11
2017-07-25T00:08:54.068Z,945.14
2017-07-25T00:09:54.062Z,945.15
2017-07-25T00:10:54.056Z,945.14
2017-07-25T00:11:54.048Z,945.13
2017-07-25T00:12:54.041Z,945.13
2017-07-25T00:13:54.035Z,945.11
2017-07-25T00:14:54.029Z,945.13
2017-07-25T00:15:54.021Z,945.05
2017-07-25T00:16:54.016Z,945.08
2017-07-25T00:17:54.009Z,945.02
2017-07-25T00:18:54.001Z,945.04
2017-07-25T00:19:53.995Z,945.03
2017-07-25T00:20:53.988Z,945.02
2017-07-25T00:21:53.985Z,944.96
2017-07-25T00:22:53.974Z,944.97
2017-07-25T00:23:53.968Z,944.97
2017-07-25T00:24:53.961Z,944.94
2017-07-25T00:25:53.954Z,944.92
2017-07-25T00:26:53.947Z,944.94
2017-07-25T00:27:53.942Z,944.92
2017-07-25T00:28:53.934Z,944.94
2017-07-25T00:29:53.927Z,944.94
2017-07-25T00:30:53.920Z,944.88
2017-07-25T00:31:53.924Z,944.86
2017-07-25T00:32:53.908Z,944.88
2017-07-25T00:33:53.901Z,944.83
2017-07-25T00:34:53.894Z,944.87
2017-07-25T00:35:53.888Z,944.86
2017-07-25T00:36:53.891Z,944.83
2017-07-25T00:37:53.873Z,944.82
2017-07-25T00:38:53.884Z,944.84
2017-07-25T00:39:53.870Z,944.88
2017-07-25T00:40:53.853Z,944.85
2017-07-25T00:41:53.848Z,944.87
2017-07-25T00:42:53.840Z,944.87
2017-07-25T00:43:53.833Z,944.85
2017-07-25T00:44:53.827Z,944.8
2017-07-25T00:45:53.820Z,944.81
2017-07-25T00:46:53.813Z,944.78
2017-07-25T00:47:53.808Z,944.75
2017-07-25T00:48:53.801Z,944.79
2017-07-25T00:49:53.799Z,944.71
2017-07-25T00:50:53.786Z,944.69
2017-07-25T00:51:53.780Z,944.71
2017-07-25T00:52:53.773Z,944.74
2017-07-25T00:53:53.766Z,944.74
2017-07-25T00:54:53.759Z,944.76
2017-07-25T00:55:53.753Z,944.75
2017-07-25T00:56:53.746Z,944.77
2017-07-25T00:57:53.739Z,944.72
2017-07-25T00:58:53.731Z,944.75
2017-07-25T00:59:53.726Z,944.71
2017-07-25T01:00:53.718Z,944.71
2017-07-25T01:01:53.713Z,944.74
2017-07-25T01:02:53.705Z,944.69
2017-07-25T01:03:53.698Z,944.67
2017-07-25T01:04:53.692Z,944.68
2017-07-25T01:05:53.684Z,944.72
2017-07-25T01:06:53.678Z,944.73
2017-07-25T01:07:53.670Z,944.7
2017-07-25T01:08:53.664Z,944.68
2017-07-25T01:09:53.656Z,944.68
2017-07-25T01:10:53.649Z,944.7
2017-07-25T01:11:53.654Z,944.69
2017-07-25T01:12:53.637Z,944.68
2017-07-25T01:13:53.629Z,944.67
2017-07-25T01:14:53.622Z,944.64
2017-07-25T01:15:53.615Z,944.65
2017-07-25T01:16:53.610Z,944.58
2017-07-25T01:17:53.602Z,944.55
2017-07-25T01:18:53.595Z,944.57
2017-07-25T01:19:53.589Z,944.61
2017-07-25T01:20:53.581Z,944.6
2017-07-25T01:21:53.574Z,944.57
2017-07-25T01:22:53.625Z,944.59
2017-07-25T01:23:53.561Z,944.57
2017-07-25T01:24:53.554Z,944.55
2017-07-25T01:25:53.547Z,944.58
2017-07-25T01:26:53.541Z,944.55
2017-07-25T01:27:53.532Z,944.53
2017-07-25T01:28:53.526Z,944.57
2017-07-25T01:29:53.518Z,944.57
2017-07-25T01:30:53.512Z,944.57
2017-07-25T01:31:53.505Z,944.59
2017-07-25T01:32:53.497Z,944.6
2017-07-25T01:33:53.510Z,944.59
2017-07-25T01:34:53.535Z,944.54
2017-07-25T01:35:53.493Z,944.57
2017-07-25T01:36:53.471Z,944.54
2017-07-25T01:37:53.464Z,944.49
2017-07-25T01:38:53.456Z,944.44
2017-07-25T01:39:53.452Z,944.46
2017-07-25T01:40:53.443Z,944.41
2017-07-25T01:41:53.437Z,944.43
2017-07-25T01:42:53.433Z,944.39
2017-07-25T01:43:53.423Z,944.39
2017-07-25T01:44:53.416Z,944.35
2017-07-25T01:45:53.409Z,944.34
2017-07-25T01:46:53.401Z,944.32
2017-07-25T01:47:53.396Z,944.29
2017-07-25T01:48:53.389Z,944.33
2017-07-25T01:49:53.382Z,944.26
2017-07-25T01:50:53.374Z,944.29
2017-07-25T01:51:53.367Z,944.25
2017-07-25T01:52:53.361Z,944.25
2017-07-25T01:53:53.353Z,944.26
2017-07-25T01:54:53.349Z,944.27
2017-07-25T01:55:53.339Z,944.27
2017-07-25T01:56:53.333Z,944.28
2017-07-25T01:57:53.327Z,944.25
2017-07-25T01:58:53.318Z,944.24
2017-07-25T01:59:53.311Z,944.23
2017-07-25T02:00:53.303Z,944.21
2017-07-25T02:01:53.298Z,944.21
2017-07-25T02:02:53.291Z,944.22
2017-07-25T02:03:53.285Z,944.17
2017-07-25T02:04:53.277Z,944.14
2017-07-25T02:05:53.269Z,944.14
2017-07-25T02:06:53.263Z,944.15
2017-07-25T02:07:53.256Z,944.1
2017-07-25T02:08:53.251Z,944.11
2017-07-25T02:09:53.242Z,944.09
2017-07-25T02:10:53.236Z,944.08
2017-07-25T02:11:53.228Z,944.14
2017-07-25T02:12:53.221Z,944.08
2017-07-25T02:13:53.229Z,944.08
2017-07-25T02:14:53.207Z,944.04
2017-07-25T02:15:53.214Z,944.1
2017-07-25T02:16:53.198Z,944.06
2017-07-25T02:17:53.187Z,944.06
2017-07-25T02:18:53.179Z,944.04
2017-07-25T02:19:53.173Z,943.97
2017-07-25T02:20:53.186Z,943.96
2017-07-25T02:21:53.157Z,943.95
2017-07-25T02:22:53.154Z,943.95
2017-07-25T02:23:53.143Z,943.94
2017-07-25T02:24:53.136Z,943.95
2017-07-25T02:25:53.132Z,943.99
2017-07-25T02:26:53.122Z,943.95
2017-07-25T02:27:53.115Z,943.99
2017-07-25T02:28:53.109Z,944.04
2017-07-25T02:29:53.102Z,944.05
2017-07-25T02:30:53.094Z,944.07
2017-07-25T02:31:53.087Z,944.08
2017-07-25T02:32:53.080Z,944.08
2017-07-25T02:33:53.073Z,944.12
2017-07-25T02:34:53.066Z,944.11
2017-07-25T02:35:53.071Z,944.12
2017-07-25T02:36:53.051Z,944.15
2017-07-25T02:37:53.043Z,944.11
2017-07-25T02:38:53.037Z,944.11
2017-07-25T02:39:53.031Z,944.16
2017-07-25T02:40:53.028Z,944.12
2017-07-25T02:41:53.016Z,944.18
2017-07-25T02:42:53.011Z,944.15
2017-07-25T02:43:53.003Z,944.16
2017-07-25T02:44:52.995Z,944.14
2017-07-25T02:45:52.989Z,944.13
2017-07-25T02:46:52.986Z,944.11
2017-07-25T02:47:52.988Z,944.1
2017-07-25T02:48:52.967Z,944.07
2017-07-25T02:49:52.960Z,944.06
2017-07-25T02:50:52.954Z,944.09
2017-07-25T02:51:52.963Z,944.1
2017-07-25T02:52:52.942Z,944.09
2017-07-25T02:53:52.933Z,944.12
2017-07-25T02:54:52.926Z,944.1
2017-07-25T02:55:52.918Z,944.1
2017-07-25T02:56:52.911Z,944.1
2017-07-25T02:57:52.905Z,944.09
2017-07-25T02:58:52.924Z,944.12
2017-07-25T02:59:52.889Z,944.17
2017-07-25T03:00:52.885Z,944.13
2017-07-25T03:01:52.888Z,944.08
2017-07-25T03:02:52.868Z,944.07
2017-07-25T03:03:52.861Z,944.12
2017-07-25T03:04:52.855Z,944.09
2017-07-25T03:05:52.848Z,944.1
2017-07-25T03:06:52.840Z,944.1
2017-07-25T03:07:52.834Z,944.01
2017-07-25T03:08:52.827Z,943.93
2017-07-25T03:09:52.822Z,943.94
2017-07-25T03:10:52.812Z,943.97
2017-07-25T03:11:52.806Z,944.03
2017-07-25T03:12:52.799Z,943.95
2017-07-25T03:13:52.790Z,943.95
2017-07-25T03:14:52.804Z,944.01
2017-07-25T03:15:52.777Z,943.95
2017-07-25T03:16:52.770Z,943.92
2017-07-25T03:17:52.780Z,943.93
2017-07-25T03:18:52.756Z,943.92
2017-07-25T03:19:52.749Z,943.91
2017-07-25T03:20:52.742Z,943.88
2017-07-25T03:21:52.734Z,943.84
2017-07-25T03:22:52.727Z,943.89
2017-07-25T03:23:52.720Z,943.91
2017-07-25T03:24:52.713Z,943.88
2017-07-25T03:25:52.707Z,943.87
2017-07-25T03:26:52.699Z,943.85
2017-07-25T03:27:52.692Z,943.9
2017-07-25T03:28:52.685Z,943.81
2017-07-25T03:29:52.676Z,943.79
2017-07-25T03:30:52.672Z,943.84
2017-07-25T03:31:52.664Z,943.83
2017-07-25T03:32:52.657Z,943.79
2017-07-25T03:33:52.650Z,943.77
2017-07-25T03:34:52.644Z,943.74
2017-07-25T03:35:52.635Z,943.78
2017-07-25T03:36:52.628Z,943.79
2017-07-25T03:37:52.633Z,943.73
2017-07-25T03:38:52.615Z,943.71
2017-07-25T03:39:52.607Z,943.7
2017-07-25T03:40:52.600Z,943.66
2017-07-25T03:41:52.594Z,943.67
2017-07-25T03:42:52.587Z,943.66
2017-07-25T03:43:52.579Z,943.74
2017-07-25T03:44:52.572Z,943.68
2017-07-25T03:45:52.567Z,943.63
2017-07-25T03:46:52.557Z,943.65
2017-07-25T03:47:52.550Z,943.69
2017-07-25T03:48:52.543Z,943.63
2017-07-25T03:49:52.536Z,943.65
2017-07-25T03:50:52.529Z,943.65
2017-07-25T03:51:52.522Z,943.61
2017-07-25T03:52:52.515Z,943.61
2017-07-25T03:53:52.507Z,943.62
2017-07-25T03:54:52.500Z,943.62
2017-07-25T03:55:52.493Z,943.63
2017-07-25T03:56:52.485Z,943.61
2017-07-25T03:57:52.479Z,943.59
2017-07-25T03:58:52.471Z,943.58
2017-07-25T03:59:52.464Z,943.56
2017-07-25T04:00:52.458Z,943.56
2017-07-25T04:01:52.466Z,943.53
2017-07-25T04:02:52.443Z,943.53
2017-07-25T04:03:52.435Z,943.48
2017-07-25T04:04:52.429Z,943.46
2017-07-25T04:05:52.421Z,943.47
2017-07-25T04:06:52.414Z,943.44
2017-07-25T04:07:52.406Z,943.35
2017-07-25T04:08:52.399Z,943.41
2017-07-25T04:09:52.392Z,943.43
2017-07-25T04:10:52.418Z,943.42
2017-07-25T04:11:52.378Z,943.38
2017-07-25T04:12:52.370Z,943.35
2017-07-25T04:13:52.364Z,943.37
2017-07-25T04:14:52.357Z,943.37
2017-07-25T04:15:52.350Z,943.4
2017-07-25T04:16:52.342Z,943.36
2017-07-25T04:17:52.335Z,943.35
2017-07-25T04:18:52.354Z,943.36
2017-07-25T04:19:52.320Z,943.34
2017-07-25T04:20:52.334Z,943.34
2017-07-25T04:21:52.305Z,943.4
2017-07-25T04:22:52.299Z,943.35
2017-07-25T04:23:52.291Z,943.35
2017-07-25T04:24:52.302Z,943.34
2017-07-25T04:25:52.278Z,943.32
2017-07-25T04:26:52.283Z,943.33
2017-07-25T04:27:52.274Z,943.36
2017-07-25T04:28:52.258Z,943.38
2017-07-25T04:29:52.251Z,943.33
2017-07-25T04:30:52.243Z,943.34
2017-07-25T04:31:52.237Z,943.39
2017-07-25T04:32:52.229Z,943.39
2017-07-25T04:33:52.222Z,943.38
2017-07-25T04:34:52.214Z,943.36
2017-07-25T04:35:52.208Z,943.3
2017-07-25T04:36:52.201Z,943.33
2017-07-25T04:37:52.194Z,943.33
2017-07-25T04:38:52.190Z,943.31
2017-07-25T04:39:52.185Z,943.35
2017-07-25T04:40:52.173Z,943.32
2017-07-25T04:41:52.166Z,943.34
2017-07-25T04:42:52.159Z,943.37
2017-07-25T04:43:52.164Z,943.39
2017-07-25T04:44:52.144Z,943.38
2017-07-25T04:45:52.137Z,943.37
2017-07-25T04:46:52.130Z,943.37
2017-07-25T04:47:52.123Z,943.32
2017-07-25T04:48:52.136Z,943.41
2017-07-25T04:49:52.109Z,943.3
2017-07-25T04:50:52.105Z,943.31
2017-07-25T04:51:52.095Z,943.31
2017-07-25T04:52:52.087Z,943.32
2017-07-25T04:53:52.081Z,943.31
2017-07-25T04:54:52.073Z,943.34
2017-07-25T04:55:52.077Z,943.27
2017-07-25T04:56:52.059Z,943.32
2017-07-25T04:57:52.057Z,943.27
2017-07-25T04:58:52.066Z,943.32
2017-07-25T04:59:52.038Z,943.31
2017-07-25T05:00:52.032Z,943.28
2017-07-25T05:01:52.025Z,943.26
2017-07-25T05:02:52.018Z,943.22
2017-07-25T05:03:52.024Z,943.27
2017-07-25T05:04:52.004Z,943.24
2017-07-25T05:05:51.997Z,943.25
2017-07-25T05:06:51.991Z,943.26
2017-07-25T05:07:51.984Z,943.24
2017-07-25T05:08:51.976Z,943.26
2017-07-25T05:09:51.969Z,943.23
2017-07-25T05:10:51.966Z,943.21
2017-07-25T05:11:51.956Z,943.24
2017-07-25T05:12:51.950Z,943.18
2017-07-25T05:13:51.944Z,943.13
2017-07-25T05:14:51.953Z,943.15
2017-07-25T05:15:51.928Z,943.14
2017-07-25T05:16:51.922Z,943.14
2017-07-25T05:17:51.916Z,943.14
2017-07-25T05:18:51.912Z,943.11
2017-07-25T05:19:51.901Z,943.15
2017-07-25T05:20:51.894Z,943.14
2017-07-25T05:21:51.888Z,943.09
2017-07-25T05:22:51.882Z,943.08
2017-07-25T05:23:51.874Z,943.1
2017-07-25T05:24:51.868Z,943.13
2017-07-25T05:25:51.862Z,943.11
2017-07-25T05:26:51.857Z,943.14
2017-07-25T05:27:51.847Z,943.16
2017-07-25T05:28:51.844Z,943.13
2017-07-25T05:29:51.835Z,943.12
2017-07-25T05:30:51.828Z,943.15
2017-07-25T05:31:51.821Z,943.12
2017-07-25T05:32:51.814Z,943.14
2017-07-25T05:33:51.808Z,943.13
2017-07-25T05:34:51.803Z,943.16
2017-07-25T05:35:51.796Z,943.15
2017-07-25T05:36:51.788Z,943.14
2017-07-25T05:37:51.784Z,943.17
2017-07-25T05:38:51.778Z,943.15
2017-07-25T05:39:51.771Z,943.15
2017-07-25T05:40:51.763Z,943.16
2017-07-25T05:41:51.762Z,943.13
2017-07-25T05:42:51.752Z,943.11
2017-07-25T05:43:51.744Z,943.11
2017-07-25T05:44:51.739Z,943.11
2017-07-25T05:45:51.732Z,943.1
2017-07-25T05:46:51.726Z,943.09
2017-07-25T05:47:51.719Z,943.13
2017-07-25T05:48:51.713Z,943.13
2017-07-25T05:49:51.706Z,943.12
2017-07-25T05:50:51.707Z,943.12
2017-07-25T05:51:51.693Z,943.1
2017-07-25T05:52:51.687Z,943.11
2017-07-25T05:53:51.682Z,943.11
2017-07-25T05:54:51.675Z,943.08
2017-07-25T05:55:51.668Z,943.12
2017-07-25T05:56:51.683Z,943.13
2017-07-25T05:57:51.656Z,943.12
2017-07-25T05:58:51.661Z,943.12
2017-07-25T05:59:51.651Z,943.17
2017-07-25T06:00:51.636Z,943.17
2017-07-25T06:01:51.630Z,943.13
2017-07-25T06:02:51.625Z,943.13
2017-07-25T06:03:51.618Z,943.14
2017-07-25T06:04:51.628Z,943.12
2017-07-25T06:05:51.605Z,943.11
2017-07-25T06:06:51.599Z,943.1
2017-07-25T06:07:51.593Z,943.11
2017-07-25T06:08:51.587Z,943.14
2017-07-25T06:09:51.580Z,943.12
2017-07-25T06:10:51.574Z,943.11
2017-07-25T06:11:51.567Z,943.09
2017-07-25T06:12:51.562Z,943.11
2017-07-25T06:13:51.555Z,943.09
2017-07-25T06:14:51.548Z,943.01
2017-07-25T06:15:51.543Z,943.01
2017-07-25T06:16:51.536Z,943.02
2017-07-25T06:17:51.530Z,943.05
2017-07-25T06:18:51.523Z,943.05
2017-07-25T06:19:51.518Z,942.97
2017-07-25T06:20:51.523Z,943.03
2017-07-25T06:21:51.504Z,942.97
2017-07-25T06:22:51.498Z,942.92
2017-07-25T06:23:51.491Z,942.96
2017-07-25T06:24:51.485Z,942.91
2017-07-25T06:25:51.479Z,942.93
2017-07-25T06:26:51.473Z,942.9
2017-07-25T06:27:51.466Z,942.89
2017-07-25T06:28:51.460Z,942.93
2017-07-25T06:29:51.456Z,942.93
2017-07-25T06:30:51.447Z,942.94
2017-07-25T06:31:51.440Z,942.91
2017-07-25T06:32:51.434Z,942.93
2017-07-25T06:33:51.429Z,942.89
2017-07-25T06:34:51.420Z,942.89
2017-07-25T06:35:51.420Z,942.91
2017-07-25T06:36:51.409Z,942.91
2017-07-25T06:37:51.422Z,942.89
2017-07-25T06:38:51.394Z,942.92
2017-07-25T06:39:51.389Z,942.81
2017-07-25T06:40:51.383Z,942.85
2017-07-25T06:41:51.376Z,942.85
2017-07-25T06:42:51.369Z,942.8
2017-07-25T06:43:51.363Z,942.85
2017-07-25T06:44:51.357Z,942.84
2017-07-25T06:45:51.349Z,942.8
2017-07-25T06:46:51.343Z,942.8
2017-07-25T06:47:51.338Z,942.87
2017-07-25T06:48:51.331Z,942.82
2017-07-25T06:49:51.335Z,942.8
2017-07-25T06:50:51.317Z,942.81
2017-07-25T06:51:51.311Z,942.83
2017-07-25T06:52:51.304Z,942.8
2017-07-25T06:53:51.298Z,942.85
2017-07-25T06:54:51.293Z,942.8
2017-07-25T06:55:51.284Z,942.87
2017-07-25T06:56:51.276Z,942.84
2017-07-25T06:57:51.269Z,942.86
2017-07-25T06:58:51.265Z,942.84
2017-07-25T06:59:51.257Z,942.84
2017-07-25T07:00:51.251Z,942.84
2017-07-25T07:01:51.243Z,942.8
2017-07-25T07:02:51.237Z,942.8
2017-07-25T07:03:51.230Z,942.84
2017-07-25T07:04:51.225Z,942.82
2017-07-25T07:05:51.232Z,942.81
2017-07-25T07:06:51.210Z,942.78
2017-07-25T07:07:51.203Z,942.77
2017-07-25T07:08:51.197Z,942.79
2017-07-25T07:09:51.189Z,942.8
2017-07-25T07:10:51.184Z,942.78
2017-07-25T07:11:51.176Z,942.79
2017-07-25T07:12:51.169Z,942.81
2017-07-25T07:13:51.165Z,942.78
2017-07-25T07:14:51.178Z,942.77
2017-07-25T07:15:51.149Z,942.81
2017-07-25T07:16:51.143Z,942.82
2017-07-25T07:17:51.136Z,942.87
2017-07-25T07:18:51.130Z,942.83
2017-07-25T07:19:51.123Z,942.89
2017-07-25T07:20:51.119Z,942.82
2017-07-25T07:21:51.118Z,942.82
2017-07-25T07:22:51.103Z,942.83
2017-07-25T07:23:51.098Z,942.91
2017-07-25T07:24:51.105Z,942.8
2017-07-25T07:25:51.098Z,942.87
2017-07-25T07:26:51.078Z,942.83
2017-07-25T07:27:51.071Z,942.86
2017-07-25T07:28:51.065Z,942.88
2017-07-25T07:29:51.060Z,942.9
2017-07-25T07:30:51.053Z,942.86
2017-07-25T07:31:51.047Z,942.85
2017-07-25T07:32:51.041Z,942.84
2017-07-25T07:33:51.035Z,942.84
2017-07-25T07:34:51.027Z,942.86
2017-07-25T07:35:51.022Z,942.81
2017-07-25T07:36:51.016Z,942.81
2017-07-25T07:37:51.016Z,942.86
2017-07-25T07:38:51.004Z,942.82
2017-07-25T07:39:50.999Z,942.83
2017-07-25T07:40:50.995Z,942.83
2017-07-25T07:41:50.986Z,942.82
2017-07-25T07:42:50.997Z,942.8
2017-07-25T07:43:50.975Z,942.8
2017-07-25T07:44:50.967Z,942.76
2017-07-25T07:45:50.982Z,942.77
2017-07-25T07:46:50.958Z,942.79
2017-07-25T07:47:50.949Z,942.88
2017-07-25T07:48:50.945Z,942.82
2017-07-25T07:49:50.939Z,942.85
2017-07-25T07:50:50.933Z,942.89
2017-07-25T07:51:50.926Z,942.83
2017-07-25T07:52:50.922Z,942.85
2017-07-25T07:53:50.915Z,942.79
2017-07-25T07:54:50.914Z,942.82
2017-07-25T07:55:50.905Z,942.73
2017-07-25T07:56:50.898Z,942.73
2017-07-25T07:57:50.895Z,942.74
2017-07-25T07:58:50.889Z,942.76
2017-07-25T07:59:50.883Z,942.73
2017-07-25T08:00:50.879Z,942.76
2017-07-25T08:01:50.875Z,942.79
2017-07-25T08:02:50.869Z,942.68
2017-07-25T08:03:50.864Z,942.71
2017-07-25T08:04:50.858Z,942.67
2017-07-25T08:05:50.873Z,942.69
2017-07-25T08:06:50.852Z,942.74
2017-07-25T08:07:50.846Z,942.73
2017-07-25T08:08:50.842Z,942.74
2017-07-25T08:09:50.854Z,942.71
2017-07-25T08:10:50.833Z,942.73
2017-07-25T08:11:50.829Z,942.75
2017-07-25T08:12:50.831Z,942.71
2017-07-25T08:13:50.820Z,942.7
2017-07-25T08:14:50.817Z,942.66
2017-07-25T08:15:50.814Z,942.6
2017-07-25T08:16:50.811Z,942.66
2017-07-25T08:17:50.809Z,942.66
2017-07-25T08:18:50.802Z,942.65
2017-07-25T08:19:50.802Z,942.63
2017-07-25T08:20:50.799Z,942.74
2017-07-25T08:21:50.796Z,942.66
2017-07-25T08:22:50.792Z,942.64
2017-07-25T08:23:50.790Z,942.56
2017-07-25T08:24:50.788Z,942.61
2017-07-25T08:25:50.785Z,942.61
2017-07-25T08:26:50.783Z,942.59
2017-07-25T08:27:50.801Z,942.56
2017-07-25T08:28:50.778Z,942.6
2017-07-25T08:29:50.779Z,942.7
2017-07-25T08:30:50.775Z,942.6
2017-07-25T08:31:50.772Z,942.65
2017-07-25T08:32:50.769Z,942.51
2017-07-25T08:33:50.770Z,942.61
2017-07-25T08:34:50.767Z,942.5
2017-07-25T08:35:50.764Z,942.6
2017-07-25T08:36:50.764Z,942.57
2017-07-25T08:37:50.762Z,942.57
2017-07-25T08:38:50.760Z,942.58
2017-07-25T08:39:50.759Z,942.65
2017-07-25T08:40:50.778Z,942.68
2017-07-25T08:41:50.758Z,942.61
2017-07-25T08:42:50.753Z,942.62
2017-07-25T08:43:50.767Z,942.62
2017-07-25T08:44:50.774Z,942.64
2017-07-25T08:45:50.763Z,942.6
2017-07-25T08:46:50.749Z,942.64
2017-07-25T08:47:50.748Z,942.6
2017-07-25T08:48:50.748Z,942.68
2017-07-25T08:49:50.747Z,942.61
2017-07-25T08:50:50.744Z,942.61
2017-07-25T08:51:50.757Z,942.6
2017-07-25T08:52:50.744Z,942.55
2017-07-25T08:53:50.751Z,942.62
2017-07-25T08:54:50.740Z,942.61
2017-07-25T08:55:50.740Z,942.6
2017-07-25T08:56:50.738Z,942.56
2017-07-25T08:57:50.737Z,942.65
2017-07-25T08:58:50.739Z,942.58
2017-07-25T08:59:50.734Z,942.58
2017-07-25T09:00:50.757Z,942.56
2017-07-25T09:01:50.731Z,942.57
2017-07-25T09:02:50.730Z,942.5
2017-07-25T09:03:50.730Z,942.62
2017-07-25T09:04:50.728Z,942.57
2017-07-25T09:05:50.728Z,942.58
2017-07-25T09:06:50.726Z,942.61
2017-07-25T09:07:50.724Z,942.59
2017-07-25T09:08:50.721Z,942.64
2017-07-25T09:09:50.724Z,942.56
2017-07-25T09:10:50.720Z,942.55
2017-07-25T09:11:50.719Z,942.55
2017-07-25T09:12:50.717Z,942.57
2017-07-25T09:13:50.719Z,942.51
2017-07-25T09:14:50.714Z,942.52
2017-07-25T09:15:50.713Z,942.52
2017-07-25T09:16:50.711Z,942.56
2017-07-25T09:17:50.710Z,942.54
2017-07-25T09:18:50.708Z,942.54
2017-07-25T09:19:50.707Z,942.52
2017-07-25T09:20:50.706Z,942.49
2017-07-25T09:21:50.704Z,942.5
2017-07-25T09:22:50.699Z,942.49
2017-07-25T09:23:50.700Z,942.46
2017-07-25T09:24:50.701Z,942.43
2017-07-25T09:25:50.698Z,942.43
2017-07-25T09:26:50.694Z,942.43
2017-07-25T09:27:50.711Z,942.38
2017-07-25T09:28:50.691Z,942.31
2017-07-25T09:29:50.689Z,942.37
2017-07-25T09:30:50.686Z,942.36
2017-07-25T09:31:50.686Z,942.33
2017-07-25T09:32:50.684Z,942.31
2017-07-25T09:33:50.699Z,942.36
2017-07-25T09:34:50.682Z,942.38
2017-07-25T09:35:50.680Z,942.3
2017-07-25T09:36:50.679Z,942.29
2017-07-25T09:37:50.675Z,942.3
2017-07-25T09:38:50.673Z,942.33
2017-07-25T09:39:50.673Z,942.3
2017-07-25T09:40:50.672Z,942.31
2017-07-25T09:41:50.666Z,942.26
2017-07-25T09:42:50.677Z,942.27
2017-07-25T09:43:50.666Z,942.27
2017-07-25T09:44:50.663Z,942.4
2017-07-25T09:45:50.660Z,942.4
2017-07-25T09:46:50.657Z,942.41
2017-07-25T09:47:50.656Z,942.41
2017-07-25T09:48:50.654Z,942.37
2017-07-25T09:49:50.650Z,942.37
2017-07-25T09:50:50.649Z,942.43
2017-07-25T09:51:50.666Z,942.38
2017-07-25T09:52:50.644Z,942.42
2017-07-25T09:53:50.640Z,942.39
2017-07-25T09:54:50.638Z,942.29
2017-07-25T09:55:50.636Z,942.36
2017-07-25T09:56:50.631Z,942.39
2017-07-25T09:57:50.632Z,942.33
2017-07-25T09:58:50.644Z,942.28
2017-07-25T09:59:50.623Z,942.24
2017-07-25T10:00:50.621Z,942.28
2017-07-25T10:01:50.618Z,942.27
2017-07-25T10:02:50.626Z,942.24
2017-07-25T10:03:50.613Z,942.22
2017-07-25T10:04:50.610Z,942.25
2017-07-25T10:05:50.607Z,942.3
2017-07-25T10:06:50.604Z,942.17
2017-07-25T10:07:50.602Z,942.19
2017-07-25T10:08:50.601Z,942.2
2017-07-25T10:09:50.599Z,942.17
2017-07-25T10:10:50.596Z,942.16
2017-07-25T10:11:50.613Z,942.2
2017-07-25T10:12:50.589Z,942.15
2017-07-25T10:13:50.589Z,942.21
2017-07-25T10:14:50.585Z,942.21
2017-07-25T10:15:50.592Z,942.21
2017-07-25T10:16:50.581Z,942.15
2017-07-25T10:17:50.578Z,942.2
2017-07-25T10:18:50.578Z,942.2
2017-07-25T10:19:50.575Z,942.19
2017-07-25T10:20:50.573Z,942.27
2017-07-25T10:21:50.570Z,942.15
2017-07-25T10:22:50.568Z,942.18
2017-07-25T10:23:50.568Z,942.17
2017-07-25T10:24:50.565Z,942.15
2017-07-25T10:25:50.563Z,942.16
2017-07-25T10:26:50.561Z,942.26
2017-07-25T10:27:50.559Z,942.36
2017-07-25T10:28:50.556Z,942.27
2017-07-25T10:29:50.555Z,942.35
2017-07-25T10:30:50.553Z,942.32
2017-07-25T10:31:50.550Z,942.32
2017-07-25T10:32:50.547Z,942.36
2017-07-25T10:33:50.546Z,942.39
2017-07-25T10:34:50.544Z,942.35
2017-07-25T10:35:50.540Z,942.36
2017-07-25T10:36:50.537Z,942.32
2017-07-25T10:37:50.534Z,942.35
2017-07-25T10:38:50.532Z,942.34
2017-07-25T10:39:50.544Z,942.31
2017-07-25T10:40:50.527Z,942.34
2017-07-25T10:41:50.547Z,942.32
2017-07-25T10:42:50.524Z,942.26
2017-07-25T10:43:50.519Z,942.28
2017-07-25T10:44:50.517Z,942.3
2017-07-25T10:45:50.515Z,942.31
2017-07-25T10:46:50.514Z,942.45
2017-07-25T10:47:50.511Z,942.3
2017-07-25T10:48:50.509Z,942.3
2017-07-25T10:49:50.508Z,942.3
2017-07-25T10:50:50.505Z,942.3
2017-07-25T10:51:50.504Z,942.25
2017-07-25T10:52:50.500Z,942.38
2017-07-25T10:53:50.499Z,942.35
2017-07-25T10:54:50.497Z,942.45
2017-07-25T10:55:50.495Z,942.31
2017-07-25T10:56:50.492Z,942.32
2017-07-25T10:57:50.491Z,942.36
2017-07-25T10:58:50.489Z,942.32
2017-07-25T10:59:50.487Z,942.33
2017-07-25T11:00:50.486Z,942.3
2017-07-25T11:01:50.484Z,942.32
2017-07-25T11:02:50.482Z,942.33
2017-07-25T11:03:50.480Z,942.26
2017-07-25T11:04:50.496Z,942.32
2017-07-25T11:05:50.478Z,942.33
2017-07-25T11:06:50.492Z,942.24
2017-07-25T11:07:50.475Z,942.31
2017-07-25T11:08:50.473Z,942.31
2017-07-25T11:09:50.470Z,942.28
2017-07-25T11:10:50.469Z,942.42
2017-07-25T11:11:50.470Z,942.45
2017-07-25T11:12:50.466Z,942.4
2017-07-25T11:13:50.475Z,942.25
2017-07-25T11:14:50.487Z,942.48
2017-07-25T11:15:50.464Z,942.41
2017-07-25T11:16:50.461Z,942.43
2017-07-25T11:17:50.461Z,942.35
2017-07-25T11:18:50.459Z,942.38
2017-07-25T11:19:50.459Z,942.36
2017-07-25T11:20:50.456Z,942.36
2017-07-25T11:21:50.455Z,942.37
2017-07-25T11:22:50.453Z,942.38
2017-07-25T11:23:50.451Z,942.35
2017-07-25T11:24:50.449Z,942.45
2017-07-25T11:25:50.448Z,942.46
2017-07-25T11:26:50.446Z,942.44
2017-07-25T11:27:50.445Z,942.39
2017-07-25T11:28:50.464Z,942.4
2017-07-25T11:29:50.443Z,942.42
2017-07-25T11:30:50.441Z,942.38
2017-07-25T11:31:50.440Z,942.39
2017-07-25T11:32:50.442Z,942.38
2017-07-25T11:33:50.438Z,942.39
2017-07-25T11:34:50.460Z,942.47
2017-07-25T11:35:50.434Z,942.41
2017-07-25T11:36:50.434Z,942.43
2017-07-25T11:37:50.433Z,942.43
2017-07-25T11:38:50.430Z,942.42
2017-07-25T11:39:50.480Z,942.49
2017-07-25T11:40:50.429Z,942.34
2017-07-25T11:41:50.428Z,942.4
2017-07-25T11:42:50.428Z,942.4
2017-07-25T11:43:50.427Z,942.4
2017-07-25T11:44:50.426Z,942.37
2017-07-25T11:45:50.425Z,942.36
2017-07-25T11:46:50.422Z,942.4
2017-07-25T11:47:50.423Z,942.39
2017-07-25T11:48:50.422Z,942.44
2017-07-25T11:49:50.420Z,942.42
2017-07-25T11:50:50.421Z,942.43
2017-07-25T11:51:50.421Z,942.46
2017-07-25T11:52:50.418Z,942.44
2017-07-25T11:53:50.417Z,942.38
2017-07-25T11:54:50.420Z,942.45
2017-07-25T11:55:50.415Z,942.44
2017-07-25T11:56:50.413Z,942.37
2017-07-25T11:57:50.432Z,942.46
2017-07-25T11:58:50.412Z,942.38
2017-07-25T11:59:50.411Z,942.46
2017-07-25T12:00:50.409Z,942.46
2017-07-25T12:01:50.417Z,942.28
2017-07-25T12:02:50.407Z,942.41
2017-07-25T12:03:50.405Z,942.45
2017-07-25T12:04:50.403Z,942.45
2017-07-25T12:05:50.402Z,942.4
2017-07-25T12:06:50.401Z,942.44
2017-07-25T12:07:50.419Z,942.36
2017-07-25T12:08:50.398Z,942.4
2017-07-25T12:09:50.396Z,942.35
2017-07-25T12:10:50.396Z,942.4
2017-07-25T12:11:50.393Z,942.41
2017-07-25T12:12:50.390Z,942.37
2017-07-25T12:13:50.390Z,942.41
2017-07-25T12:14:50.393Z,942.39
2017-07-25T12:15:50.384Z,942.32
2017-07-25T12:16:50.382Z,942.38
2017-07-25T12:17:50.382Z,942.44
2017-07-25T12:18:50.378Z,942.43
2017-07-25T12:19:50.377Z,942.45
2017-07-25T12:20:50.374Z,942.36
2017-07-25T12:21:50.373Z,942.38
2017-07-25T12:22:50.382Z,942.37
2017-07-25T12:23:50.367Z,942.37
2017-07-25T12:24:50.368Z,942.32
2017-07-25T12:25:50.363Z,942.41
2017-07-25T12:26:50.359Z,942.37
2017-07-25T12:27:50.357Z,942.37
2017-07-25T12:28:50.356Z,942.35
2017-07-25T12:29:50.353Z,942.32
2017-07-25T12:30:50.350Z,942.31